sensor_id;sensor_type;location;lat;lon;timestamp;temperature;humidity
4647;DHT22;2336;47.822;7.564;2023-11-21T00:01:33;10.30;99.90
4647;DHT22;2336;47.822;7.564;2023-11-21T00:04:00;10.30;99.90
4647;DHT22;2336;47.822;7.564;2023-11-21T00:06:27;10.30;99.90
4647;DHT22;2336;47.822;7.564;2023-11-21T00:08:55;10.20;99.90
4647;DHT22;2336;47.822;7.564;2023-11-21T00:11:22;10.20;99.90
4647;DHT22;2336;47.822;7.564;2023-11-21T00:13:50;10.20;99.90
4647;DHT22;2336;47.822;7.564;2023-11-21T00:16:17;10.20;99.90
4647;DHT22;2336;47.822;7.564;2023-11-21T00:18:45;10.20;99.90
4647;DHT22;2336;47.822;7.564;2023-11-21T00:21:12;10.20;99.90
4647;DHT22;2336;47.822;7.564;2023-11-21T00:23:39;10.10;99.90
4647;DHT22;2336;47.822;7.564;2023-11-21T00:26:07;10.10;99.90
4647;DHT22;2336;47.822;7.564;2023-11-21T00:28:34;10.00;99.90
4647;DHT22;2336;47.822;7.564;2023-11-21T00:31:00;9.90;99.90
4647;DHT22;2336;47.822;7.564;2023-11-21T00:33:27;9.80;99.90
4647;DHT22;2336;47.822;7.564;2023-11-21T00:35:56;9.70;99.90
4647;DHT22;2336;47.822;7.564;2023-11-21T00:38:23;9.70;99.90
4647;DHT22;2336;47.822;7.564;2023-11-21T00:40:50;9.70;99.90
4647;DHT22;2336;47.822;7.564;2023-11-21T00:43:17;9.60;99.90
4647;DHT22;2336;47.822;7.564;2023-11-21T00:45:43;9.60;99.90
4647;DHT22;2336;47.822;7.564;2023-11-21T00:48:10;9.60;99.90
4647;DHT22;2336;47.822;7.564;2023-11-21T00:50:39;9.50;99.90
4647;DHT22;2336;47.822;7.564;2023-11-21T00:53:07;9.50;99.90
4647;DHT22;2336;47.822;7.564;2023-11-21T00:55:34;9.50;99.90
4647;DHT22;2336;47.822;7.564;2023-11-21T00:58:01;9.50;99.90
4647;DHT22;2336;47.822;7.564;2023-11-21T01:00:30;9.50;99.90
4647;DHT22;2336;47.822;7.564;2023-11-21T01:02:57;9.50;99.90
4647;DHT22;2336;47.822;7.564;2023-11-21T01:05:23;9.50;99.90
4647;DHT22;2336;47.822;7.564;2023-11-21T01:07:51;9.50;99.90
4647;DHT22;2336;47.822;7.564;2023-11-21T01:10:19;9.40;99.90
4647;DHT22;2336;47.822;7.564;2023-11-21T01:12:46;9.40;99.90
4647;DHT22;2336;47.822;7.564;2023-11-21T01:15:14;9.40;99.90
4647;DHT22;2336;47.822;7.564;2023-11-21T01:17:41;9.40;99.90
4647;DHT22;2336;47.822;7.564;2023-11-21T01:20:09;9.40;99.90
4647;DHT22;2336;47.822;7.564;2023-11-21T01:22:38;9.40;99.90
4647;DHT22;2336;47.822;7.564;2023-11-21T01:25:05;9.40;99.90
4647;DHT22;2336;47.822;7.564;2023-11-21T01:27:35;9.40;99.90
4647;DHT22;2336;47.822;7.564;2023-11-21T01:30:02;9.40;99.90
4647;DHT22;2336;47.822;7.564;2023-11-21T01:32:30;9.40;99.90
4647;DHT22;2336;47.822;7.564;2023-11-21T01:34:56;9.40;99.90
4647;DHT22;2336;47.822;7.564;2023-11-21T01:37:23;9.40;99.90
4647;DHT22;2336;47.822;7.564;2023-11-21T01:39:54;9.40;99.90
4647;DHT22;2336;47.822;7.564;2023-11-21T01:42:21;9.40;99.90
4647;DHT22;2336;47.822;7.564;2023-11-21T01:44:50;9.30;99.90
4647;DHT22;2336;47.822;7.564;2023-11-21T01:47:17;9.30;99.90
4647;DHT22;2336;47.822;7.564;2023-11-21T01:49:45;9.40;99.90
4647;DHT22;2336;47.822;7.564;2023-11-21T01:52:14;9.40;99.90
4647;DHT22;2336;47.822;7.564;2023-11-21T01:54:41;9.40;99.90
4647;DHT22;2336;47.822;7.564;2023-11-21T01:57:08;9.40;99.90
4647;DHT22;2336;47.822;7.564;2023-11-21T01:59:37;9.40;99.90
4647;DHT22;2336;47.822;7.564;2023-11-21T02:02:05;9.40;99.90
4647;DHT22;2336;47.822;7.564;2023-11-21T02:04:33;9.40;99.90
4647;DHT22;2336;47.822;7.564;2023-11-21T02:07:01;9.50;99.90
4647;DHT22;2336;47.822;7.564;2023-11-21T02:09:27;9.40;99.90
4647;DHT22;2336;47.822;7.564;2023-11-21T02:11:55;9.50;99.90
4647;DHT22;2336;47.822;7.564;2023-11-21T02:14:24;9.40;99.90
4647;DHT22;2336;47.822;7.564;2023-11-21T02:16:52;9.40;99.90
4647;DHT22;2336;47.822;7.564;2023-11-21T02:19:21;9.40;99.90
4647;DHT22;2336;47.822;7.564;2023-11-21T02:21:51;9.50;99.90
4647;DHT22;2336;47.822;7.564;2023-11-21T02:24:20;9.50;99.90
4647;DHT22;2336;47.822;7.564;2023-11-21T02:26:48;9.40;99.90
4647;DHT22;2336;47.822;7.564;2023-11-21T02:29:17;9.50;99.90
4647;DHT22;2336;47.822;7.564;2023-11-21T02:31:47;9.50;99.90
4647;DHT22;2336;47.822;7.564;2023-11-21T02:34:14;9.40;99.90
4647;DHT22;2336;47.822;7.564;2023-11-21T02:36:41;9.40;99.90
4647;DHT22;2336;47.822;7.564;2023-11-21T02:39:09;9.50;99.90
4647;DHT22;2336;47.822;7.564;2023-11-21T02:41:38;9.40;99.90
4647;DHT22;2336;47.822;7.564;2023-11-21T02:44:05;9.40;99.90
4647;DHT22;2336;47.822;7.564;2023-11-21T02:46:32;9.40;99.90
4647;DHT22;2336;47.822;7.564;2023-11-21T02:49:00;9.40;99.90
4647;DHT22;2336;47.822;7.564;2023-11-21T02:51:27;9.40;99.90
4647;DHT22;2336;47.822;7.564;2023-11-21T02:53:54;9.50;99.90
4647;DHT22;2336;47.822;7.564;2023-11-21T02:56:24;9.40;99.90
4647;DHT22;2336;47.822;7.564;2023-11-21T02:58:52;9.40;99.90
4647;DHT22;2336;47.822;7.564;2023-11-21T03:01:19;9.40;99.90
4647;DHT22;2336;47.822;7.564;2023-11-21T03:03:51;9.40;99.90
4647;DHT22;2336;47.822;7.564;2023-11-21T03:06:20;9.40;99.90
4647;DHT22;2336;47.822;7.564;2023-11-21T03:08:47;9.40;99.90
4647;DHT22;2336;47.822;7.564;2023-11-21T03:11:14;9.40;99.90
4647;DHT22;2336;47.822;7.564;2023-11-21T03:13:41;9.40;99.90
4647;DHT22;2336;47.822;7.564;2023-11-21T03:16:10;9.40;99.90
4647;DHT22;2336;47.822;7.564;2023-11-21T03:18:38;9.40;99.90
4647;DHT22;2336;47.822;7.564;2023-11-21T03:21:05;9.40;99.90
4647;DHT22;2336;47.822;7.564;2023-11-21T03:23:34;9.30;99.90
4647;DHT22;2336;47.822;7.564;2023-11-21T03:26:01;9.20;99.90
4647;DHT22;2336;47.822;7.564;2023-11-21T03:28:28;9.20;99.90
4647;DHT22;2336;47.822;7.564;2023-11-21T03:30:55;9.10;99.90
4647;DHT22;2336;47.822;7.564;2023-11-21T03:33:24;9.10;99.90
4647;DHT22;2336;47.822;7.564;2023-11-21T03:35:51;9.10;99.90
4647;DHT22;2336;47.822;7.564;2023-11-21T03:38:18;9.00;99.90
4647;DHT22;2336;47.822;7.564;2023-11-21T03:40:45;9.00;99.90
4647;DHT22;2336;47.822;7.564;2023-11-21T03:43:13;9.00;99.90
4647;DHT22;2336;47.822;7.564;2023-11-21T03:45:39;9.00;99.90
4647;DHT22;2336;47.822;7.564;2023-11-21T03:48:07;9.00;99.90
4647;DHT22;2336;47.822;7.564;2023-11-21T03:50:39;9.00;99.90
4647;DHT22;2336;47.822;7.564;2023-11-21T03:53:06;9.00;99.90
4647;DHT22;2336;47.822;7.564;2023-11-21T03:55:33;9.00;99.90
4647;DHT22;2336;47.822;7.564;2023-11-21T03:58:00;9.00;99.90
4647;DHT22;2336;47.822;7.564;2023-11-21T04:00:28;9.00;99.90
4647;DHT22;2336;47.822;7.564;2023-11-21T04:02:54;8.90;99.90
4647;DHT22;2336;47.822;7.564;2023-11-21T04:05:21;8.90;99.90
4647;DHT22;2336;47.822;7.564;2023-11-21T04:07:50;8.90;99.90
4647;DHT22;2336;47.822;7.564;2023-11-21T04:10:17;8.90;99.90
4647;DHT22;2336;47.822;7.564;2023-11-21T04:12:44;8.90;99.90
4647;DHT22;2336;47.822;7.564;2023-11-21T04:15:12;8.90;99.90
4647;DHT22;2336;47.822;7.564;2023-11-21T04:17:40;8.90;99.90
4647;DHT22;2336;47.822;7.564;2023-11-21T04:20:08;8.90;99.90
4647;DHT22;2336;47.822;7.564;2023-11-21T04:22:37;8.90;99.90
4647;DHT22;2336;47.822;7.564;2023-11-21T04:25:08;8.90;99.90
4647;DHT22;2336;47.822;7.564;2023-11-21T04:27:35;8.90;99.90
4647;DHT22;2336;47.822;7.564;2023-11-21T04:30:03;8.90;99.90
4647;DHT22;2336;47.822;7.564;2023-11-21T04:32:30;8.90;99.90
4647;DHT22;2336;47.822;7.564;2023-11-21T04:34:57;8.90;99.90
4647;DHT22;2336;47.822;7.564;2023-11-21T04:37:24;8.90;99.90
4647;DHT22;2336;47.822;7.564;2023-11-21T04:39:53;8.90;99.90
4647;DHT22;2336;47.822;7.564;2023-11-21T04:42:22;8.90;99.90
4647;DHT22;2336;47.822;7.564;2023-11-21T04:44:49;8.90;99.90
4647;DHT22;2336;47.822;7.564;2023-11-21T04:47:18;8.90;99.90
4647;DHT22;2336;47.822;7.564;2023-11-21T04:49:46;8.80;99.90
4647;DHT22;2336;47.822;7.564;2023-11-21T04:52:13;8.90;99.90
4647;DHT22;2336;47.822;7.564;2023-11-21T04:54:40;8.80;99.90
4647;DHT22;2336;47.822;7.564;2023-11-21T04:57:08;8.80;99.90
4647;DHT22;2336;47.822;7.564;2023-11-21T04:59:36;8.80;99.90
4647;DHT22;2336;47.822;7.564;2023-11-21T05:02:03;8.80;99.90
4647;DHT22;2336;47.822;7.564;2023-11-21T05:04:30;8.80;99.90
4647;DHT22;2336;47.822;7.564;2023-11-21T05:06:57;8.80;99.90
4647;DHT22;2336;47.822;7.564;2023-11-21T05:09:26;8.80;99.90
4647;DHT22;2336;47.822;7.564;2023-11-21T05:11:54;8.80;99.90
4647;DHT22;2336;47.822;7.564;2023-11-21T05:14:21;8.80;99.90
4647;DHT22;2336;47.822;7.564;2023-11-21T05:16:49;8.80;99.90
4647;DHT22;2336;47.822;7.564;2023-11-21T05:19:17;8.80;99.90
4647;DHT22;2336;47.822;7.564;2023-11-21T05:21:44;8.80;99.90
4647;DHT22;2336;47.822;7.564;2023-11-21T05:24:11;8.80;99.90
4647;DHT22;2336;47.822;7.564;2023-11-21T05:26:38;8.80;99.90
4647;DHT22;2336;47.822;7.564;2023-11-21T05:29:05;8.80;99.90
4647;DHT22;2336;47.822;7.564;2023-11-21T05:31:34;8.90;99.90
4647;DHT22;2336;47.822;7.564;2023-11-21T05:34:03;8.90;99.90
4647;DHT22;2336;47.822;7.564;2023-11-21T05:36:30;8.90;99.90
4647;DHT22;2336;47.822;7.564;2023-11-21T05:38:57;8.90;99.90
4647;DHT22;2336;47.822;7.564;2023-11-21T05:41:24;8.90;99.90
4647;DHT22;2336;47.822;7.564;2023-11-21T05:43:51;8.90;99.90
4647;DHT22;2336;47.822;7.564;2023-11-21T05:46:19;8.90;99.90
4647;DHT22;2336;47.822;7.564;2023-11-21T05:48:47;8.90;99.90
4647;DHT22;2336;47.822;7.564;2023-11-21T05:51:15;8.90;99.90
4647;DHT22;2336;47.822;7.564;2023-11-21T05:53:43;8.90;99.90
4647;DHT22;2336;47.822;7.564;2023-11-21T05:56:10;8.90;99.90
4647;DHT22;2336;47.822;7.564;2023-11-21T05:58:37;8.90;99.90
4647;DHT22;2336;47.822;7.564;2023-11-21T06:01:05;8.90;99.90
4647;DHT22;2336;47.822;7.564;2023-11-21T06:03:34;8.90;99.90
4647;DHT22;2336;47.822;7.564;2023-11-21T06:06:01;8.90;99.90
4647;DHT22;2336;47.822;7.564;2023-11-21T06:08:31;8.80;99.90
4647;DHT22;2336;47.822;7.564;2023-11-21T06:10:57;8.80;99.90
4647;DHT22;2336;47.822;7.564;2023-11-21T06:13:24;8.80;99.90
4647;DHT22;2336;47.822;7.564;2023-11-21T06:15:51;8.80;99.90
4647;DHT22;2336;47.822;7.564;2023-11-21T06:18:18;8.80;99.90
4647;DHT22;2336;47.822;7.564;2023-11-21T06:20:46;8.80;99.90
4647;DHT22;2336;47.822;7.564;2023-11-21T06:23:13;8.80;99.90
4647;DHT22;2336;47.822;7.564;2023-11-21T06:25:43;8.80;99.90
4647;DHT22;2336;47.822;7.564;2023-11-21T06:28:10;8.80;99.90
4647;DHT22;2336;47.822;7.564;2023-11-21T06:30:37;8.70;99.90
4647;DHT22;2336;47.822;7.564;2023-11-21T06:33:04;8.70;99.90
4647;DHT22;2336;47.822;7.564;2023-11-21T06:35:32;8.60;99.90
4647;DHT22;2336;47.822;7.564;2023-11-21T06:38:00;8.50;99.90
4647;DHT22;2336;47.822;7.564;2023-11-21T06:40:28;8.50;99.90
4647;DHT22;2336;47.822;7.564;2023-11-21T06:42:56;8.40;99.90
4647;DHT22;2336;47.822;7.564;2023-11-21T06:45:24;8.30;99.90
4647;DHT22;2336;47.822;7.564;2023-11-21T06:47:51;8.20;99.90
4647;DHT22;2336;47.822;7.564;2023-11-21T06:50:18;8.20;99.90
4647;DHT22;2336;47.822;7.564;2023-11-21T06:52:44;8.20;99.90
4647;DHT22;2336;47.822;7.564;2023-11-21T06:55:12;8.20;99.90
4647;DHT22;2336;47.822;7.564;2023-11-21T06:57:38;8.10;99.90
4647;DHT22;2336;47.822;7.564;2023-11-21T07:00:08;8.00;99.90
4647;DHT22;2336;47.822;7.564;2023-11-21T07:02:35;8.00;99.90
4647;DHT22;2336;47.822;7.564;2023-11-21T07:05:02;8.00;99.90
4647;DHT22;2336;47.822;7.564;2023-11-21T07:07:31;8.00;99.90
4647;DHT22;2336;47.822;7.564;2023-11-21T07:10:01;7.90;99.90
4647;DHT22;2336;47.822;7.564;2023-11-21T07:12:28;7.90;99.90
4647;DHT22;2336;47.822;7.564;2023-11-21T07:14:56;7.90;99.90
4647;DHT22;2336;47.822;7.564;2023-11-21T07:17:24;7.90;99.90
4647;DHT22;2336;47.822;7.564;2023-11-21T07:19:51;8.00;99.90
4647;DHT22;2336;47.822;7.564;2023-11-21T07:22:21;7.90;99.90
4647;DHT22;2336;47.822;7.564;2023-11-21T07:24:49;7.90;99.90
4647;DHT22;2336;47.822;7.564;2023-11-21T07:27:17;7.90;99.90
4647;DHT22;2336;47.822;7.564;2023-11-21T07:29:44;7.90;99.90
4647;DHT22;2336;47.822;7.564;2023-11-21T07:32:11;7.90;99.90
4647;DHT22;2336;47.822;7.564;2023-11-21T07:34:40;7.90;99.90
4647;DHT22;2336;47.822;7.564;2023-11-21T07:37:08;8.00;99.90
4647;DHT22;2336;47.822;7.564;2023-11-21T07:39:35;8.10;99.90
4647;DHT22;2336;47.822;7.564;2023-11-21T07:42:03;8.20;99.90
4647;DHT22;2336;47.822;7.564;2023-11-21T07:44:30;8.40;99.90
4647;DHT22;2336;47.822;7.564;2023-11-21T07:46:58;8.50;99.90
4647;DHT22;2336;47.822;7.564;2023-11-21T07:49:24;8.60;99.90
4647;DHT22;2336;47.822;7.564;2023-11-21T07:51:53;8.70;99.90
4647;DHT22;2336;47.822;7.564;2023-11-21T07:54:20;8.90;99.90
4647;DHT22;2336;47.822;7.564;2023-11-21T07:56:47;9.00;99.90
4647;DHT22;2336;47.822;7.564;2023-11-21T07:59:14;9.10;99.90
4647;DHT22;2336;47.822;7.564;2023-11-21T08:01:40;9.20;99.90
4647;DHT22;2336;47.822;7.564;2023-11-21T08:04:08;9.20;99.90
4647;DHT22;2336;47.822;7.564;2023-11-21T08:06:35;9.30;99.90
4647;DHT22;2336;47.822;7.564;2023-11-21T08:09:03;9.40;99.90
4647;DHT22;2336;47.822;7.564;2023-11-21T08:11:30;9.40;99.90
4647;DHT22;2336;47.822;7.564;2023-11-21T08:13:58;9.40;99.90
4647;DHT22;2336;47.822;7.564;2023-11-21T08:16:25;9.50;99.90
4647;DHT22;2336;47.822;7.564;2023-11-21T08:18:53;9.50;99.90
4647;DHT22;2336;47.822;7.564;2023-11-21T08:21:20;9.60;99.90
4647;DHT22;2336;47.822;7.564;2023-11-21T08:23:46;9.60;99.90
4647;DHT22;2336;47.822;7.564;2023-11-21T08:26:21;9.60;99.90
4647;DHT22;2336;47.822;7.564;2023-11-21T08:28:48;9.70;99.90
4647;DHT22;2336;47.822;7.564;2023-11-21T08:31:15;9.70;99.90
4647;DHT22;2336;47.822;7.564;2023-11-21T08:33:42;9.80;99.90
4647;DHT22;2336;47.822;7.564;2023-11-21T08:36:09;9.90;99.90
4647;DHT22;2336;47.822;7.564;2023-11-21T08:38:37;9.90;99.90
4647;DHT22;2336;47.822;7.564;2023-11-21T08:41:05;10.00;99.90
4647;DHT22;2336;47.822;7.564;2023-11-21T08:43:35;10.10;99.90
4647;DHT22;2336;47.822;7.564;2023-11-21T08:46:05;10.20;99.90
4647;DHT22;2336;47.822;7.564;2023-11-21T08:48:35;10.30;99.90
4647;DHT22;2336;47.822;7.564;2023-11-21T08:51:02;10.30;99.90
4647;DHT22;2336;47.822;7.564;2023-11-21T08:53:29;10.40;99.90
4647;DHT22;2336;47.822;7.564;2023-11-21T08:55:56;10.30;99.90
4647;DHT22;2336;47.822;7.564;2023-11-21T08:58:23;10.30;99.90
4647;DHT22;2336;47.822;7.564;2023-11-21T09:00:51;10.20;99.90
4647;DHT22;2336;47.822;7.564;2023-11-21T09:03:18;10.20;99.90
4647;DHT22;2336;47.822;7.564;2023-11-21T09:05:46;10.20;99.90
4647;DHT22;2336;47.822;7.564;2023-11-21T09:08:12;10.30;99.90
4647;DHT22;2336;47.822;7.564;2023-11-21T09:10:39;10.30;99.90
4647;DHT22;2336;47.822;7.564;2023-11-21T09:13:08;10.20;99.90
4647;DHT22;2336;47.822;7.564;2023-11-21T09:15:35;10.20;99.90
4647;DHT22;2336;47.822;7.564;2023-11-21T09:18:04;10.20;99.90
4647;DHT22;2336;47.822;7.564;2023-11-21T09:20:31;10.20;99.90
4647;DHT22;2336;47.822;7.564;2023-11-21T09:22:58;10.20;99.90
4647;DHT22;2336;47.822;7.564;2023-11-21T09:25:25;10.20;99.90
4647;DHT22;2336;47.822;7.564;2023-11-21T09:27:52;10.30;99.90
4647;DHT22;2336;47.822;7.564;2023-11-21T09:30:18;10.30;99.90
4647;DHT22;2336;47.822;7.564;2023-11-21T09:32:45;10.40;99.90
4647;DHT22;2336;47.822;7.564;2023-11-21T09:35:14;10.40;99.90
4647;DHT22;2336;47.822;7.564;2023-11-21T09:37:41;10.40;99.90
4647;DHT22;2336;47.822;7.564;2023-11-21T09:40:11;10.40;99.90
4647;DHT22;2336;47.822;7.564;2023-11-21T09:42:42;10.50;99.90
4647;DHT22;2336;47.822;7.564;2023-11-21T09:45:15;10.50;99.90
4647;DHT22;2336;47.822;7.564;2023-11-21T09:47:43;10.60;99.90
4647;DHT22;2336;47.822;7.564;2023-11-21T09:50:11;10.60;99.90
4647;DHT22;2336;47.822;7.564;2023-11-21T09:52:46;10.60;99.90
4647;DHT22;2336;47.822;7.564;2023-11-21T09:55:16;10.70;99.90
4647;DHT22;2336;47.822;7.564;2023-11-21T09:57:47;10.70;99.90
4647;DHT22;2336;47.822;7.564;2023-11-21T10:00:16;10.80;99.90
4647;DHT22;2336;47.822;7.564;2023-11-21T10:02:45;10.90;99.90
4647;DHT22;2336;47.822;7.564;2023-11-21T10:05:14;10.90;99.90
4647;DHT22;2336;47.822;7.564;2023-11-21T10:07:44;10.90;99.90
4647;DHT22;2336;47.822;7.564;2023-11-21T10:10:13;10.90;99.90
4647;DHT22;2336;47.822;7.564;2023-11-21T10:12:42;10.90;99.90
4647;DHT22;2336;47.822;7.564;2023-11-21T10:15:11;10.90;99.90
4647;DHT22;2336;47.822;7.564;2023-11-21T10:17:43;11.00;99.90
4647;DHT22;2336;47.822;7.564;2023-11-21T10:20:11;11.10;99.90
4647;DHT22;2336;47.822;7.564;2023-11-21T10:22:40;11.20;99.90
4647;DHT22;2336;47.822;7.564;2023-11-21T10:25:09;11.20;99.90
4647;DHT22;2336;47.822;7.564;2023-11-21T10:27:36;11.20;99.90
4647;DHT22;2336;47.822;7.564;2023-11-21T10:30:05;11.10;99.90
4647;DHT22;2336;47.822;7.564;2023-11-21T10:32:33;11.00;99.90
4647;DHT22;2336;47.822;7.564;2023-11-21T10:35:00;10.90;99.90
4647;DHT22;2336;47.822;7.564;2023-11-21T10:37:32;10.90;99.90
4647;DHT22;2336;47.822;7.564;2023-11-21T10:39:58;10.80;99.90
4647;DHT22;2336;47.822;7.564;2023-11-21T10:42:27;10.70;99.90
4647;DHT22;2336;47.822;7.564;2023-11-21T10:44:55;10.70;99.90
4647;DHT22;2336;47.822;7.564;2023-11-21T10:47:21;10.70;99.90
4647;DHT22;2336;47.822;7.564;2023-11-21T10:49:49;10.70;99.90
4647;DHT22;2336;47.822;7.564;2023-11-21T10:52:18;10.60;99.90
4647;DHT22;2336;47.822;7.564;2023-11-21T10:54:46;10.60;99.90
4647;DHT22;2336;47.822;7.564;2023-11-21T10:57:16;10.60;99.90
4647;DHT22;2336;47.822;7.564;2023-11-21T10:59:47;10.70;99.90
4647;DHT22;2336;47.822;7.564;2023-11-21T11:02:21;10.70;99.90
4647;DHT22;2336;47.822;7.564;2023-11-21T11:04:52;10.60;99.90
4647;DHT22;2336;47.822;7.564;2023-11-21T11:07:21;10.70;99.90
4647;DHT22;2336;47.822;7.564;2023-11-21T11:09:51;10.60;99.90
4647;DHT22;2336;47.822;7.564;2023-11-21T11:12:19;10.70;99.90
4647;DHT22;2336;47.822;7.564;2023-11-21T11:14:48;10.70;99.90
4647;DHT22;2336;47.822;7.564;2023-11-21T11:17:15;10.70;99.90
4647;DHT22;2336;47.822;7.564;2023-11-21T11:19:45;10.60;99.90
4647;DHT22;2336;47.822;7.564;2023-11-21T11:22:23;10.60;99.90
4647;DHT22;2336;47.822;7.564;2023-11-21T11:25:25;10.50;99.90
4647;DHT22;2336;47.822;7.564;2023-11-21T11:27:58;10.50;99.90
4647;DHT22;2336;47.822;7.564;2023-11-21T11:30:41;10.60;99.90
4647;DHT22;2336;47.822;7.564;2023-11-21T11:33:19;10.70;99.90
4647;DHT22;2336;47.822;7.564;2023-11-21T11:35:54;10.60;99.90
4647;DHT22;2336;47.822;7.564;2023-11-21T11:38:22;10.50;99.90
4647;DHT22;2336;47.822;7.564;2023-11-21T11:40:53;10.40;99.90
4647;DHT22;2336;47.822;7.564;2023-11-21T11:43:25;10.40;99.90
4647;DHT22;2336;47.822;7.564;2023-11-21T11:45:55;10.40;99.90
4647;DHT22;2336;47.822;7.564;2023-11-21T11:48:23;10.50;99.90
4647;DHT22;2336;47.822;7.564;2023-11-21T11:51:03;10.50;99.90
4647;DHT22;2336;47.822;7.564;2023-11-21T11:53:35;10.50;99.90
4647;DHT22;2336;47.822;7.564;2023-11-21T11:56:22;10.50;99.90
4647;DHT22;2336;47.822;7.564;2023-11-21T11:58:51;10.40;99.90
4647;DHT22;2336;47.822;7.564;2023-11-21T12:01:20;10.30;99.90
4647;DHT22;2336;47.822;7.564;2023-11-21T12:04:23;10.20;99.90
4647;DHT22;2336;47.822;7.564;2023-11-21T12:06:57;10.20;99.90
4647;DHT22;2336;47.822;7.564;2023-11-21T12:09:28;10.20;99.90
4647;DHT22;2336;47.822;7.564;2023-11-21T12:11:57;10.30;99.90
4647;DHT22;2336;47.822;7.564;2023-11-21T12:14:23;10.20;99.90
4647;DHT22;2336;47.822;7.564;2023-11-21T12:16:52;10.20;99.90
4647;DHT22;2336;47.822;7.564;2023-11-21T12:19:20;10.20;99.90
4647;DHT22;2336;47.822;7.564;2023-11-21T12:21:48;10.30;99.90
4647;DHT22;2336;47.822;7.564;2023-11-21T12:24:16;10.50;99.90
4647;DHT22;2336;47.822;7.564;2023-11-21T12:26:43;10.60;99.90
4647;DHT22;2336;47.822;7.564;2023-11-21T12:29:11;10.60;99.90
4647;DHT22;2336;47.822;7.564;2023-11-21T12:31:38;10.70;99.90
4647;DHT22;2336;47.822;7.564;2023-11-21T12:34:06;10.80;99.90
4647;DHT22;2336;47.822;7.564;2023-11-21T12:36:37;10.90;99.90
4647;DHT22;2336;47.822;7.564;2023-11-21T12:39:04;10.90;99.90
4647;DHT22;2336;47.822;7.564;2023-11-21T12:41:34;11.00;99.90
4647;DHT22;2336;47.822;7.564;2023-11-21T12:44:01;11.10;99.90
4647;DHT22;2336;47.822;7.564;2023-11-21T12:46:28;11.00;99.90
4647;DHT22;2336;47.822;7.564;2023-11-21T12:48:57;11.10;99.90
4647;DHT22;2336;47.822;7.564;2023-11-21T12:51:26;11.00;99.90
4647;DHT22;2336;47.822;7.564;2023-11-21T12:53:52;10.90;99.90
4647;DHT22;2336;47.822;7.564;2023-11-21T12:56:21;11.00;99.90
4647;DHT22;2336;47.822;7.564;2023-11-21T12:58:49;11.10;99.90
4647;DHT22;2336;47.822;7.564;2023-11-21T13:01:17;11.10;99.90
4647;DHT22;2336;47.822;7.564;2023-11-21T13:03:47;11.20;99.90
4647;DHT22;2336;47.822;7.564;2023-11-21T13:06:17;11.20;99.90
4647;DHT22;2336;47.822;7.564;2023-11-21T13:08:46;11.20;99.90
4647;DHT22;2336;47.822;7.564;2023-11-21T13:11:14;11.10;99.90
4647;DHT22;2336;47.822;7.564;2023-11-21T13:13:42;11.00;99.90
4647;DHT22;2336;47.822;7.564;2023-11-21T13:16:10;11.00;99.90
4647;DHT22;2336;47.822;7.564;2023-11-21T13:18:37;11.10;99.90
4647;DHT22;2336;47.822;7.564;2023-11-21T13:21:06;11.00;99.90
4647;DHT22;2336;47.822;7.564;2023-11-21T13:23:38;11.00;99.90
4647;DHT22;2336;47.822;7.564;2023-11-21T13:26:08;11.10;99.90
4647;DHT22;2336;47.822;7.564;2023-11-21T13:28:36;11.10;99.90
4647;DHT22;2336;47.822;7.564;2023-11-21T13:31:04;10.90;99.90
4647;DHT22;2336;47.822;7.564;2023-11-21T13:33:41;10.80;99.90
4647;DHT22;2336;47.822;7.564;2023-11-21T13:36:12;10.70;99.90
4647;DHT22;2336;47.822;7.564;2023-11-21T13:38:41;10.60;99.90
4647;DHT22;2336;47.822;7.564;2023-11-21T13:41:11;10.60;99.90
4647;DHT22;2336;47.822;7.564;2023-11-21T13:43:39;10.50;99.90
4647;DHT22;2336;47.822;7.564;2023-11-21T13:46:09;10.40;99.90
4647;DHT22;2336;47.822;7.564;2023-11-21T13:48:41;10.40;99.90
4647;DHT22;2336;47.822;7.564;2023-11-21T13:51:08;10.50;99.90
4647;DHT22;2336;47.822;7.564;2023-11-21T13:53:43;10.40;99.90
4647;DHT22;2336;47.822;7.564;2023-11-21T13:56:12;10.50;99.90
4647;DHT22;2336;47.822;7.564;2023-11-21T13:58:43;10.40;99.90
4647;DHT22;2336;47.822;7.564;2023-11-21T14:01:13;10.40;99.90
4647;DHT22;2336;47.822;7.564;2023-11-21T14:04:05;10.50;99.90
4647;DHT22;2336;47.822;7.564;2023-11-21T14:06:45;10.50;99.90
4647;DHT22;2336;47.822;7.564;2023-11-21T14:09:14;10.50;99.90
4647;DHT22;2336;47.822;7.564;2023-11-21T14:11:50;10.50;99.90
4647;DHT22;2336;47.822;7.564;2023-11-21T14:14:19;10.60;99.90
4647;DHT22;2336;47.822;7.564;2023-11-21T14:16:46;10.70;99.90
4647;DHT22;2336;47.822;7.564;2023-11-21T14:19:13;10.70;99.90
4647;DHT22;2336;47.822;7.564;2023-11-21T14:21:42;10.70;99.90
4647;DHT22;2336;47.822;7.564;2023-11-21T14:24:10;10.60;99.90
4647;DHT22;2336;47.822;7.564;2023-11-21T14:26:39;10.70;99.90
4647;DHT22;2336;47.822;7.564;2023-11-21T14:29:08;10.40;99.90
4647;DHT22;2336;47.822;7.564;2023-11-21T14:31:36;10.10;99.90
4647;DHT22;2336;47.822;7.564;2023-11-21T14:34:03;10.00;99.90
4647;DHT22;2336;47.822;7.564;2023-11-21T14:36:33;9.70;99.90
4647;DHT22;2336;47.822;7.564;2023-11-21T14:39:00;9.60;99.90
4647;DHT22;2336;47.822;7.564;2023-11-21T14:41:26;9.40;99.90
4647;DHT22;2336;47.822;7.564;2023-11-21T14:43:54;9.30;99.90
4647;DHT22;2336;47.822;7.564;2023-11-21T14:46:24;9.30;99.90
4647;DHT22;2336;47.822;7.564;2023-11-21T14:48:51;9.30;99.90
4647;DHT22;2336;47.822;7.564;2023-11-21T14:51:25;9.30;99.90
4647;DHT22;2336;47.822;7.564;2023-11-21T14:53:56;9.20;99.90
4647;DHT22;2336;47.822;7.564;2023-11-21T14:56:26;9.20;99.90
4647;DHT22;2336;47.822;7.564;2023-11-21T14:58:57;9.20;99.90
4647;DHT22;2336;47.822;7.564;2023-11-21T15:01:26;9.20;99.90
4647;DHT22;2336;47.822;7.564;2023-11-21T15:04:08;9.10;99.90
4647;DHT22;2336;47.822;7.564;2023-11-21T15:06:40;9.00;99.90
4647;DHT22;2336;47.822;7.564;2023-11-21T15:09:08;9.00;99.90
4647;DHT22;2336;47.822;7.564;2023-11-21T15:11:49;9.00;99.90
4647;DHT22;2336;47.822;7.564;2023-11-21T15:14:20;9.00;99.90
4647;DHT22;2336;47.822;7.564;2023-11-21T15:16:52;9.10;99.90
4647;DHT22;2336;47.822;7.564;2023-11-21T15:19:25;9.00;99.90
4647;DHT22;2336;47.822;7.564;2023-11-21T15:21:52;9.00;99.90
4647;DHT22;2336;47.822;7.564;2023-11-21T15:24:19;9.00;99.90
4647;DHT22;2336;47.822;7.564;2023-11-21T15:26:47;9.00;99.90
4647;DHT22;2336;47.822;7.564;2023-11-21T15:29:14;9.00;99.90
4647;DHT22;2336;47.822;7.564;2023-11-21T15:31:41;8.90;99.90
4647;DHT22;2336;47.822;7.564;2023-11-21T15:34:15;8.90;99.90
4647;DHT22;2336;47.822;7.564;2023-11-21T15:36:42;8.90;99.90
4647;DHT22;2336;47.822;7.564;2023-11-21T15:39:09;8.80;99.90
4647;DHT22;2336;47.822;7.564;2023-11-21T15:41:38;8.80;99.90
4647;DHT22;2336;47.822;7.564;2023-11-21T15:44:06;8.80;99.90
4647;DHT22;2336;47.822;7.564;2023-11-21T15:46:35;8.80;99.90
4647;DHT22;2336;47.822;7.564;2023-11-21T15:49:03;8.80;99.90
4647;DHT22;2336;47.822;7.564;2023-11-21T15:51:39;8.80;99.90
4647;DHT22;2336;47.822;7.564;2023-11-21T15:54:06;8.80;99.90
4647;DHT22;2336;47.822;7.564;2023-11-21T15:56:34;8.80;99.90
4647;DHT22;2336;47.822;7.564;2023-11-21T15:59:02;8.80;99.90
4647;DHT22;2336;47.822;7.564;2023-11-21T16:01:30;8.80;99.90
4647;DHT22;2336;47.822;7.564;2023-11-21T16:03:57;8.80;99.90
4647;DHT22;2336;47.822;7.564;2023-11-21T16:06:26;8.70;99.90
4647;DHT22;2336;47.822;7.564;2023-11-21T16:08:55;8.80;99.90
4647;DHT22;2336;47.822;7.564;2023-11-21T16:11:24;8.80;99.90
4647;DHT22;2336;47.822;7.564;2023-11-21T16:13:51;8.80;99.90
4647;DHT22;2336;47.822;7.564;2023-11-21T16:16:21;8.80;99.90
4647;DHT22;2336;47.822;7.564;2023-11-21T16:18:48;8.80;99.90
4647;DHT22;2336;47.822;7.564;2023-11-21T16:21:15;8.80;99.90